createdAt,value
2023-03-27T00:02:56.371Z,27.78
2023-03-27T00:06:56.296Z,27.78
2023-03-27T00:10:56.388Z,27.77
2023-03-27T00:14:56.301Z,27.80
2023-03-27T00:18:56.158Z,27.77
2023-03-27T00:22:56.139Z,27.74
2023-03-27T00:26:56.120Z,27.77
2023-03-27T00:30:56.221Z,27.75
2023-03-27T00:34:56.018Z,27.75
2023-03-27T00:38:56.246Z,27.77
2023-03-27T00:42:55.957Z,27.74
2023-03-27T00:46:55.886Z,27.75
2023-03-27T00:50:56.069Z,27.72
2023-03-27T00:54:55.960Z,27.74
2023-03-27T00:58:56.079Z,27.74
2023-03-27T01:02:56.046Z,27.71
2023-03-27T01:06:56.942Z,27.70
2023-03-27T01:10:56.035Z,27.70
2023-03-27T01:14:55.845Z,27.70
2023-03-27T01:18:55.809Z,27.72
2023-03-27T01:22:55.761Z,27.70
2023-03-27T01:26:55.752Z,27.67
2023-03-27T01:30:55.872Z,27.67
2023-03-27T01:35:01.257Z,27.67
2023-03-27T01:38:56.658Z,27.68
2023-03-27T01:42:55.583Z,27.67
2023-03-27T01:46:55.565Z,27.67
2023-03-27T01:50:55.701Z,27.65
2023-03-27T01:54:55.472Z,27.64
2023-03-27T01:58:55.540Z,27.64
2023-03-27T02:02:55.509Z,27.65
2023-03-27T02:06:55.556Z,27.65
2023-03-27T02:10:55.860Z,27.62
2023-03-27T02:14:55.691Z,27.61
2023-03-27T02:18:55.728Z,27.61
2023-03-27T02:22:55.842Z,27.61
2023-03-27T02:26:55.963Z,27.61
2023-03-27T02:31:05.405Z,27.58
2023-03-27T02:34:56.824Z,27.61
2023-03-27T02:38:55.835Z,27.56
2023-03-27T02:42:55.763Z,27.60
2023-03-27T02:46:55.702Z,27.58
2023-03-27T02:50:56.116Z,27.60
2023-03-27T02:54:55.776Z,27.56
2023-03-27T02:58:55.944Z,27.58
2023-03-27T03:02:56.020Z,27.57
2023-03-27T03:06:56.055Z,27.54
2023-03-27T03:10:56.283Z,27.57
2023-03-27T03:14:56.193Z,27.56
2023-03-27T03:18:56.293Z,27.54
2023-03-27T03:22:56.361Z,27.56
2023-03-27T03:26:56.430Z,27.56
2023-03-27T03:30:56.809Z,27.53
2023-03-27T03:34:56.698Z,27.53
2023-03-27T03:38:56.809Z,27.50
2023-03-27T03:42:56.926Z,27.53
2023-03-27T03:46:57.028Z,27.51
2023-03-27T03:50:57.463Z,27.51
2023-03-27T03:54:57.182Z,27.53
2023-03-27T03:58:57.317Z,27.50
2023-03-27T04:02:57.535Z,27.50
2023-03-27T04:06:57.519Z,27.47
2023-03-27T04:10:58.074Z,27.47
2023-03-27T04:14:57.748Z,27.43
2023-03-27T04:18:57.672Z,27.40
2023-03-27T04:22:57.686Z,27.37
2023-03-27T04:26:57.646Z,27.37
2023-03-27T04:30:57.822Z,27.37
2023-03-27T04:34:57.566Z,27.30
2023-03-27T04:38:57.529Z,27.26
2023-03-27T04:42:57.521Z,27.28
2023-03-27T04:46:57.476Z,27.28
2023-03-27T08:03:00.283Z,28.09
2023-03-27T08:07:00.355Z,28.20
2023-03-27T08:27:00.192Z,28.44
2023-03-27T08:31:02.898Z,28.13
2023-03-27T08:35:00.202Z,27.99
2023-03-27T08:39:01.197Z,27.98
2023-03-27T08:43:01.493Z,28.06
2023-03-27T08:47:00.180Z,28.15
2023-03-27T08:51:00.620Z,28.25
2023-03-27T08:55:00.042Z,28.33
2023-03-27T08:59:00.013Z,28.46
2023-03-27T09:03:00.231Z,28.54
2023-03-27T09:07:00.102Z,28.46
2023-03-27T09:11:00.291Z,28.46
2023-03-27T09:15:00.460Z,28.52
2023-03-27T09:19:00.651Z,28.60
2023-03-27T09:35:01.259Z,28.69
2023-03-27T09:55:01.677Z,28.32
2023-03-27T10:19:02.603Z,28.64
2023-03-27T10:23:02.581Z,28.54
2023-03-27T10:27:02.403Z,28.43
2023-03-27T10:31:02.323Z,28.18
2023-03-27T10:35:02.610Z,28.12
2023-03-27T10:39:02.327Z,28.30
2023-03-27T10:43:02.216Z,28.52
2023-03-27T10:47:02.226Z,28.69
2023-03-27T10:51:02.156Z,28.71
2023-03-27T10:55:02.139Z,28.81
2023-03-27T10:59:02.535Z,28.91
2023-03-27T11:03:02.215Z,28.98
2023-03-27T11:07:02.027Z,29.09
2023-03-27T11:11:01.941Z,29.22
2023-03-27T11:15:01.947Z,29.32
2023-03-27T11:19:01.936Z,29.29
2023-03-27T11:23:02.000Z,29.33
2023-03-27T11:27:02.013Z,29.37
2023-03-27T11:31:12.672Z,29.33
2023-03-27T11:35:04.470Z,29.35
2023-03-27T11:39:02.173Z,29.35
2023-03-27T11:43:02.249Z,29.30
2023-03-27T11:47:02.364Z,29.30
2023-03-27T11:51:02.558Z,29.30
2023-03-27T11:55:02.690Z,29.33
2023-03-27T11:59:02.753Z,29.35
2023-03-27T12:03:02.894Z,29.24
2023-03-27T12:07:04.835Z,29.14
2023-03-27T12:11:02.867Z,29.11
2023-03-27T12:15:02.830Z,29.05
2023-03-27T12:19:10.736Z,29.01
2023-03-27T12:23:03.757Z,28.98
2023-03-27T12:27:02.727Z,28.95
2023-03-27T12:31:02.667Z,28.94
2023-03-27T12:35:02.657Z,28.94
2023-03-27T12:39:02.642Z,28.95
2023-03-27T12:43:02.575Z,28.94
2023-03-27T12:47:02.614Z,28.94
2023-03-27T12:51:02.654Z,28.97
2023-03-27T12:55:02.687Z,28.95
2023-03-27T12:59:03.432Z,28.94
2023-03-27T13:03:02.811Z,28.97
2023-03-27T13:07:02.733Z,29.01
2023-03-27T13:11:02.733Z,29.07
2023-03-27T13:15:02.687Z,29.11
2023-03-27T13:19:02.720Z,29.18
2023-03-27T13:23:02.804Z,29.18
2023-03-27T13:27:02.971Z,29.21
2023-03-27T13:31:03.121Z,29.25
2023-03-27T13:35:03.093Z,29.26
2023-03-27T13:39:03.051Z,29.25
2023-03-27T13:43:03.074Z,29.24
2023-03-27T13:47:02.999Z,29.21
2023-03-27T13:51:02.952Z,29.17
2023-03-27T13:55:02.922Z,29.26
2023-03-27T13:59:02.872Z,29.37
2023-03-27T14:03:02.909Z,29.48
2023-03-27T14:07:02.782Z,29.55
2023-03-27T14:11:02.772Z,29.55
2023-03-27T14:15:02.689Z,29.52
2023-03-27T14:19:02.722Z,29.50
2023-03-27T14:23:02.895Z,29.46
2023-03-27T14:27:02.822Z,29.45
2023-03-27T15:03:02.548Z,29.70
2023-03-27T15:07:02.502Z,29.70
2023-03-27T15:11:02.508Z,29.72
2023-03-27T15:15:02.434Z,29.73
2023-03-27T15:19:02.332Z,29.77
2023-03-27T15:23:02.388Z,29.79
2023-03-27T15:27:02.535Z,29.76
2023-03-27T15:31:02.634Z,29.73
2023-03-27T15:35:02.676Z,29.70
2023-03-27T15:39:02.850Z,29.83
2023-03-27T15:43:02.935Z,29.88
2023-03-27T15:47:03.053Z,29.88
2023-03-27T15:51:03.009Z,29.87
2023-03-27T15:59:03.188Z,29.79
2023-03-27T16:03:03.354Z,29.74
2023-03-27T17:03:03.933Z,29.17
2023-03-27T17:19:03.724Z,29.07
2023-03-27T17:23:03.738Z,29.04
2023-03-27T17:27:03.625Z,28.98
2023-03-27T17:31:05.436Z,28.93
2023-03-27T17:35:03.613Z,28.87
2023-03-27T17:39:03.534Z,28.84
2023-03-27T17:43:03.532Z,28.78
2023-03-27T17:47:03.682Z,28.75
2023-03-27T17:51:09.421Z,28.70
2023-03-27T17:55:04.694Z,28.69
2023-03-27T17:59:03.649Z,28.63
2023-03-27T18:03:03.785Z,28.61
2023-03-27T18:07:03.633Z,28.59
2023-03-27T18:11:03.899Z,28.56
2023-03-27T18:15:03.993Z,28.52
2023-03-27T18:19:04.183Z,28.50
2023-03-27T18:23:04.353Z,28.47
2023-03-27T18:27:04.585Z,28.44
2023-03-27T18:31:04.834Z,28.43
2023-03-27T18:35:05.077Z,28.39
2023-03-27T18:39:04.753Z,28.40
2023-03-27T18:43:04.767Z,28.35
2023-03-27T18:47:04.671Z,28.32
2023-03-27T18:51:04.651Z,28.32
2023-03-27T18:55:04.650Z,28.30
2023-03-27T18:59:04.547Z,28.29
2023-03-27T19:03:04.631Z,28.26
2023-03-27T19:07:05.699Z,28.23
2023-03-27T19:11:04.480Z,28.18
2023-03-27T19:15:17.345Z,28.18
2023-03-27T19:19:05.413Z,28.18
2023-03-27T19:23:04.365Z,28.16
2023-03-27T19:27:04.380Z,28.16
2023-03-27T19:31:04.560Z,28.13
2023-03-27T19:35:04.546Z,28.09
2023-03-27T19:39:04.594Z,28.11
2023-03-27T19:43:04.510Z,28.06
2023-03-27T19:47:04.776Z,28.09
2023-03-27T19:51:04.564Z,28.02
2023-03-27T19:55:04.482Z,28.01
2023-03-27T19:59:04.503Z,28.01
2023-03-27T20:03:04.716Z,27.99
2023-03-27T20:07:04.492Z,27.99
2023-03-27T20:11:04.554Z,27.98
2023-03-27T20:15:11.643Z,27.94
2023-03-27T20:19:05.513Z,27.95
2023-03-27T20:23:04.448Z,27.94
2023-03-27T20:27:04.443Z,27.91
2023-03-27T20:31:04.444Z,27.91
2023-03-27T23:27:06.177Z,27.47
2023-03-27T23:31:06.317Z,27.49
2023-03-27T23:35:06.430Z,27.46
2023-03-27T23:39:06.554Z,27.46
2023-03-27T23:43:06.743Z,27.46
2023-03-27T23:47:06.849Z,27.47
2023-03-27T23:51:06.933Z,27.44
